sensor_id;sensor_type;location;lat;lon;timestamp;P1;durP1;ratioP1;P2;durP2;ratioP2
31680;SDS011;18281;51.364;9.566;2022-07-23T00:00:15;6.15;;;5.28;;
31680;SDS011;18281;51.364;9.566;2022-07-23T00:02:42;6.80;;;5.18;;
31680;SDS011;18281;51.364;9.566;2022-07-23T00:05:07;5.07;;;4.57;;
31680;SDS011;18281;51.364;9.566;2022-07-23T00:07:33;8.77;;;5.32;;
31680;SDS011;18281;51.364;9.566;2022-07-23T00:09:59;8.43;;;5.30;;
31680;SDS011;18281;51.364;9.566;2022-07-23T00:12:24;8.13;;;4.95;;
31680;SDS011;18281;51.364;9.566;2022-07-23T00:14:50;6.25;;;5.07;;
31680;SDS011;18281;51.364;9.566;2022-07-23T00:17:15;7.35;;;5.15;;
31680;SDS011;18281;51.364;9.566;2022-07-23T00:19:41;6.22;;;4.93;;
31680;SDS011;18281;51.364;9.566;2022-07-23T00:22:06;5.47;;;4.95;;
31680;SDS011;18281;51.364;9.566;2022-07-23T00:24:32;6.43;;;4.82;;
31680;SDS011;18281;51.364;9.566;2022-07-23T00:26:57;9.82;;;5.30;;
31680;SDS011;18281;51.364;9.566;2022-07-23T00:29:22;5.90;;;4.63;;
31680;SDS011;18281;51.364;9.566;2022-07-23T00:31:48;10.07;;;5.10;;
31680;SDS011;18281;51.364;9.566;2022-07-23T00:34:13;5.53;;;5.07;;
31680;SDS011;18281;51.364;9.566;2022-07-23T00:36:39;6.60;;;5.35;;
31680;SDS011;18281;51.364;9.566;2022-07-23T00:39:04;7.65;;;5.18;;
31680;SDS011;18281;51.364;9.566;2022-07-23T00:41:30;8.80;;;5.18;;
31680;SDS011;18281;51.364;9.566;2022-07-23T00:43:55;7.60;;;5.15;;
31680;SDS011;18281;51.364;9.566;2022-07-23T00:46:21;5.85;;;5.25;;
31680;SDS011;18281;51.364;9.566;2022-07-23T00:48:48;6.68;;;5.10;;
31680;SDS011;18281;51.364;9.566;2022-07-23T00:51:17;6.50;;;5.10;;
31680;SDS011;18281;51.364;9.566;2022-07-23T00:53:42;7.85;;;5.60;;
31680;SDS011;18281;51.364;9.566;2022-07-23T00:56:09;11.52;;;5.35;;
31680;SDS011;18281;51.364;9.566;2022-07-23T00:58:35;7.35;;;5.45;;
31680;SDS011;18281;51.364;9.566;2022-07-23T01:01:01;7.03;;;5.90;;
31680;SDS011;18281;51.364;9.566;2022-07-23T01:03:26;9.15;;;5.90;;
31680;SDS011;18281;51.364;9.566;2022-07-23T01:05:52;6.90;;;5.25;;
31680;SDS011;18281;51.364;9.566;2022-07-23T01:08:18;6.15;;;5.22;;
31680;SDS011;18281;51.364;9.566;2022-07-23T01:10:44;7.50;;;5.05;;
31680;SDS011;18281;51.364;9.566;2022-07-23T01:13:12;6.90;;;6.00;;
31680;SDS011;18281;51.364;9.566;2022-07-23T01:15:38;6.10;;;5.03;;
31680;SDS011;18281;51.364;9.566;2022-07-23T01:18:04;6.60;;;5.72;;
31680;SDS011;18281;51.364;9.566;2022-07-23T01:20:32;7.75;;;6.00;;
31680;SDS011;18281;51.364;9.566;2022-07-23T01:22:58;6.72;;;5.20;;
31680;SDS011;18281;51.364;9.566;2022-07-23T01:25:23;6.20;;;5.60;;
31680;SDS011;18281;51.364;9.566;2022-07-23T01:27:51;9.65;;;5.82;;
31680;SDS011;18281;51.364;9.566;2022-07-23T01:30:17;5.82;;;5.20;;
31680;SDS011;18281;51.364;9.566;2022-07-23T01:32:44;7.55;;;5.45;;
31680;SDS011;18281;51.364;9.566;2022-07-23T01:35:09;10.05;;;5.32;;
31680;SDS011;18281;51.364;9.566;2022-07-23T01:37:35;6.15;;;5.57;;
31680;SDS011;18281;51.364;9.566;2022-07-23T01:40:01;7.07;;;5.43;;
31680;SDS011;18281;51.364;9.566;2022-07-23T01:42:27;8.57;;;5.60;;
31680;SDS011;18281;51.364;9.566;2022-07-23T01:44:52;7.63;;;5.88;;
31680;SDS011;18281;51.364;9.566;2022-07-23T01:47:18;8.02;;;6.18;;
31680;SDS011;18281;51.364;9.566;2022-07-23T01:49:43;9.23;;;5.88;;
31680;SDS011;18281;51.364;9.566;2022-07-23T01:52:09;8.82;;;6.30;;
31680;SDS011;18281;51.364;9.566;2022-07-23T01:54:36;11.27;;;6.55;;
31680;SDS011;18281;51.364;9.566;2022-07-23T01:57:03;7.35;;;5.60;;
31680;SDS011;18281;51.364;9.566;2022-07-23T01:59:29;11.23;;;6.72;;
31680;SDS011;18281;51.364;9.566;2022-07-23T02:01:55;9.20;;;6.38;;
31680;SDS011;18281;51.364;9.566;2022-07-23T02:04:22;12.50;;;6.88;;
31680;SDS011;18281;51.364;9.566;2022-07-23T02:06:48;12.05;;;6.43;;
31680;SDS011;18281;51.364;9.566;2022-07-23T02:09:14;8.80;;;6.03;;
31680;SDS011;18281;51.364;9.566;2022-07-23T02:11:39;10.18;;;6.65;;
31680;SDS011;18281;51.364;9.566;2022-07-23T02:14:05;11.57;;;6.38;;
31680;SDS011;18281;51.364;9.566;2022-07-23T02:16:31;10.88;;;6.55;;
31680;SDS011;18281;51.364;9.566;2022-07-23T02:18:56;10.15;;;6.07;;
31680;SDS011;18281;51.364;9.566;2022-07-23T02:21:22;9.38;;;6.35;;
31680;SDS011;18281;51.364;9.566;2022-07-23T02:23:48;10.07;;;6.43;;
31680;SDS011;18281;51.364;9.566;2022-07-23T02:26:13;8.10;;;6.38;;
31680;SDS011;18281;51.364;9.566;2022-07-23T02:28:38;9.35;;;6.35;;
31680;SDS011;18281;51.364;9.566;2022-07-23T02:31:04;7.22;;;6.32;;
31680;SDS011;18281;51.364;9.566;2022-07-23T02:33:31;9.23;;;6.20;;
31680;SDS011;18281;51.364;9.566;2022-07-23T02:35:57;11.10;;;7.00;;
31680;SDS011;18281;51.364;9.566;2022-07-23T02:38:22;11.00;;;6.70;;
31680;SDS011;18281;51.364;9.566;2022-07-23T02:40:47;18.70;;;7.20;;
31680;SDS011;18281;51.364;9.566;2022-07-23T02:43:13;10.07;;;6.82;;
31680;SDS011;18281;51.364;9.566;2022-07-23T02:45:38;9.05;;;6.47;;
31680;SDS011;18281;51.364;9.566;2022-07-23T02:48:03;10.82;;;7.28;;
31680;SDS011;18281;51.364;9.566;2022-07-23T02:50:29;12.73;;;7.13;;
31680;SDS011;18281;51.364;9.566;2022-07-23T02:52:55;11.20;;;7.25;;
31680;SDS011;18281;51.364;9.566;2022-07-23T02:55:20;9.45;;;6.30;;
31680;SDS011;18281;51.364;9.566;2022-07-23T02:57:45;10.07;;;7.03;;
31680;SDS011;18281;51.364;9.566;2022-07-23T03:00:11;14.20;;;6.78;;
31680;SDS011;18281;51.364;9.566;2022-07-23T03:02:37;7.70;;;6.68;;
31680;SDS011;18281;51.364;9.566;2022-07-23T03:05:02;10.02;;;6.20;;
31680;SDS011;18281;51.364;9.566;2022-07-23T03:07:28;9.00;;;6.78;;
31680;SDS011;18281;51.364;9.566;2022-07-23T03:09:53;11.82;;;6.65;;
31680;SDS011;18281;51.364;9.566;2022-07-23T03:12:19;10.52;;;6.18;;
31680;SDS011;18281;51.364;9.566;2022-07-23T03:14:44;8.10;;;6.53;;
31680;SDS011;18281;51.364;9.566;2022-07-23T03:17:10;8.75;;;6.43;;
31680;SDS011;18281;51.364;9.566;2022-07-23T03:19:35;14.05;;;7.25;;
31680;SDS011;18281;51.364;9.566;2022-07-23T03:22:02;8.40;;;6.20;;
31680;SDS011;18281;51.364;9.566;2022-07-23T03:24:28;7.50;;;6.03;;
31680;SDS011;18281;51.364;9.566;2022-07-23T03:27:11;14.15;;;7.25;;
31680;SDS011;18281;51.364;9.566;2022-07-23T03:29:37;7.78;;;6.22;;
31680;SDS011;18281;51.364;9.566;2022-07-23T03:32:03;8.07;;;6.35;;
31680;SDS011;18281;51.364;9.566;2022-07-23T03:34:29;10.20;;;6.72;;
31680;SDS011;18281;51.364;9.566;2022-07-23T03:36:54;9.52;;;6.93;;
31680;SDS011;18281;51.364;9.566;2022-07-23T03:39:20;9.13;;;6.63;;
31680;SDS011;18281;51.364;9.566;2022-07-23T03:41:45;8.70;;;6.90;;
31680;SDS011;18281;51.364;9.566;2022-07-23T03:44:10;14.02;;;6.60;;
31680;SDS011;18281;51.364;9.566;2022-07-23T03:46:36;11.90;;;6.63;;
31680;SDS011;18281;51.364;9.566;2022-07-23T03:49:01;10.65;;;6.60;;
31680;SDS011;18281;51.364;9.566;2022-07-23T03:51:27;13.32;;;7.38;;
31680;SDS011;18281;51.364;9.566;2022-07-23T03:53:52;9.65;;;7.10;;
31680;SDS011;18281;51.364;9.566;2022-07-23T03:56:18;12.27;;;6.65;;
31680;SDS011;18281;51.364;9.566;2022-07-23T03:58:43;11.10;;;8.02;;
31680;SDS011;18281;51.364;9.566;2022-07-23T04:01:08;11.95;;;6.57;;
31680;SDS011;18281;51.364;9.566;2022-07-23T04:03:34;8.20;;;6.22;;
31680;SDS011;18281;51.364;9.566;2022-07-23T04:05:59;9.18;;;6.55;;
31680;SDS011;18281;51.364;9.566;2022-07-23T04:08:25;11.05;;;5.93;;
31680;SDS011;18281;51.364;9.566;2022-07-23T04:10:50;11.40;;;6.90;;
31680;SDS011;18281;51.364;9.566;2022-07-23T04:13:15;8.20;;;6.38;;
31680;SDS011;18281;51.364;9.566;2022-07-23T04:15:41;8.95;;;6.95;;
31680;SDS011;18281;51.364;9.566;2022-07-23T04:18:06;9.45;;;7.68;;
31680;SDS011;18281;51.364;9.566;2022-07-23T04:20:32;7.38;;;6.40;;
31680;SDS011;18281;51.364;9.566;2022-07-23T04:22:58;7.18;;;6.35;;
31680;SDS011;18281;51.364;9.566;2022-07-23T04:25:23;11.20;;;7.18;;
31680;SDS011;18281;51.364;9.566;2022-07-23T04:27:49;11.63;;;6.68;;
31680;SDS011;18281;51.364;9.566;2022-07-23T04:30:14;10.95;;;7.63;;
31680;SDS011;18281;51.364;9.566;2022-07-23T04:32:39;8.00;;;6.82;;
31680;SDS011;18281;51.364;9.566;2022-07-23T04:35:05;9.25;;;6.97;;
31680;SDS011;18281;51.364;9.566;2022-07-23T04:37:30;10.68;;;6.80;;
31680;SDS011;18281;51.364;9.566;2022-07-23T04:39:56;8.63;;;7.20;;
31680;SDS011;18281;51.364;9.566;2022-07-23T04:42:21;9.73;;;7.35;;
31680;SDS011;18281;51.364;9.566;2022-07-23T04:44:47;12.68;;;8.07;;
31680;SDS011;18281;51.364;9.566;2022-07-23T04:47:12;10.10;;;7.90;;
31680;SDS011;18281;51.364;9.566;2022-07-23T04:49:37;10.93;;;7.70;;
31680;SDS011;18281;51.364;9.566;2022-07-23T04:52:03;9.30;;;7.05;;
31680;SDS011;18281;51.364;9.566;2022-07-23T04:54:29;10.82;;;6.95;;
31680;SDS011;18281;51.364;9.566;2022-07-23T04:56:55;8.43;;;6.57;;
31680;SDS011;18281;51.364;9.566;2022-07-23T04:59:20;8.13;;;7.28;;
31680;SDS011;18281;51.364;9.566;2022-07-23T05:01:46;8.27;;;6.50;;
31680;SDS011;18281;51.364;9.566;2022-07-23T05:04:11;19.58;;;14.02;;
31680;SDS011;18281;51.364;9.566;2022-07-23T05:06:37;14.63;;;7.40;;
31680;SDS011;18281;51.364;9.566;2022-07-23T05:09:02;11.15;;;7.35;;
31680;SDS011;18281;51.364;9.566;2022-07-23T05:11:27;9.43;;;6.90;;
31680;SDS011;18281;51.364;9.566;2022-07-23T05:13:53;11.88;;;7.25;;
31680;SDS011;18281;51.364;9.566;2022-07-23T05:16:18;13.35;;;7.65;;
31680;SDS011;18281;51.364;9.566;2022-07-23T05:18:44;9.32;;;6.35;;
31680;SDS011;18281;51.364;9.566;2022-07-23T05:21:09;10.60;;;5.93;;
31680;SDS011;18281;51.364;9.566;2022-07-23T05:23:35;9.35;;;5.70;;
31680;SDS011;18281;51.364;9.566;2022-07-23T05:26:00;6.88;;;5.40;;
31680;SDS011;18281;51.364;9.566;2022-07-23T05:28:25;8.45;;;6.40;;
31680;SDS011;18281;51.364;9.566;2022-07-23T05:30:51;11.38;;;5.32;;
31680;SDS011;18281;51.364;9.566;2022-07-23T05:33:18;14.60;;;6.53;;
31680;SDS011;18281;51.364;9.566;2022-07-23T05:35:44;8.20;;;5.35;;
31680;SDS011;18281;51.364;9.566;2022-07-23T05:38:10;8.13;;;5.45;;
31680;SDS011;18281;51.364;9.566;2022-07-23T05:40:35;8.25;;;6.38;;
31680;SDS011;18281;51.364;9.566;2022-07-23T05:43:00;9.65;;;6.13;;
31680;SDS011;18281;51.364;9.566;2022-07-23T05:45:26;11.73;;;6.00;;
31680;SDS011;18281;51.364;9.566;2022-07-23T05:47:51;6.53;;;5.63;;
31680;SDS011;18281;51.364;9.566;2022-07-23T05:50:17;7.95;;;6.63;;
31680;SDS011;18281;51.364;9.566;2022-07-23T05:52:42;6.43;;;5.80;;
31680;SDS011;18281;51.364;9.566;2022-07-23T05:55:08;9.90;;;5.70;;
31680;SDS011;18281;51.364;9.566;2022-07-23T05:57:35;11.15;;;6.38;;
31680;SDS011;18281;51.364;9.566;2022-07-23T06:00:01;8.55;;;6.95;;
31680;SDS011;18281;51.364;9.566;2022-07-23T06:02:28;9.18;;;6.07;;
31680;SDS011;18281;51.364;9.566;2022-07-23T06:04:54;8.60;;;6.40;;
31680;SDS011;18281;51.364;9.566;2022-07-23T06:07:19;7.43;;;5.95;;
31680;SDS011;18281;51.364;9.566;2022-07-23T06:09:44;8.32;;;6.25;;
31680;SDS011;18281;51.364;9.566;2022-07-23T06:12:11;10.02;;;6.93;;
31680;SDS011;18281;51.364;9.566;2022-07-23T06:14:37;10.85;;;6.68;;
31680;SDS011;18281;51.364;9.566;2022-07-23T06:17:02;8.65;;;6.60;;
31680;SDS011;18281;51.364;9.566;2022-07-23T06:19:28;13.50;;;7.40;;
31680;SDS011;18281;51.364;9.566;2022-07-23T06:21:53;12.40;;;7.75;;
31680;SDS011;18281;51.364;9.566;2022-07-23T06:24:18;11.65;;;7.00;;
31680;SDS011;18281;51.364;9.566;2022-07-23T06:26:44;11.32;;;7.00;;
31680;SDS011;18281;51.364;9.566;2022-07-23T06:29:09;10.93;;;7.38;;
31680;SDS011;18281;51.364;9.566;2022-07-23T06:31:35;13.15;;;6.97;;
31680;SDS011;18281;51.364;9.566;2022-07-23T06:34:01;12.25;;;8.05;;
31680;SDS011;18281;51.364;9.566;2022-07-23T06:36:26;12.10;;;7.32;;
31680;SDS011;18281;51.364;9.566;2022-07-23T06:38:51;8.68;;;6.13;;
31680;SDS011;18281;51.364;9.566;2022-07-23T06:41:17;9.85;;;6.63;;
31680;SDS011;18281;51.364;9.566;2022-07-23T06:43:42;15.95;;;7.75;;
31680;SDS011;18281;51.364;9.566;2022-07-23T06:46:08;10.32;;;7.50;;
31680;SDS011;18281;51.364;9.566;2022-07-23T06:48:33;7.60;;;6.63;;
31680;SDS011;18281;51.364;9.566;2022-07-23T06:51:00;9.60;;;7.40;;
31680;SDS011;18281;51.364;9.566;2022-07-23T06:53:26;9.13;;;6.43;;
31680;SDS011;18281;51.364;9.566;2022-07-23T06:55:52;11.68;;;7.10;;
31680;SDS011;18281;51.364;9.566;2022-07-23T06:58:17;10.98;;;7.20;;
31680;SDS011;18281;51.364;9.566;2022-07-23T07:00:44;8.45;;;6.55;;
31680;SDS011;18281;51.364;9.566;2022-07-23T07:03:09;8.48;;;6.43;;
31680;SDS011;18281;51.364;9.566;2022-07-23T07:05:35;8.95;;;6.32;;
31680;SDS011;18281;51.364;9.566;2022-07-23T07:08:00;9.38;;;6.55;;
31680;SDS011;18281;51.364;9.566;2022-07-23T07:10:26;8.10;;;6.00;;
31680;SDS011;18281;51.364;9.566;2022-07-23T07:12:51;12.52;;;5.72;;
31680;SDS011;18281;51.364;9.566;2022-07-23T07:15:16;8.13;;;5.10;;
31680;SDS011;18281;51.364;9.566;2022-07-23T07:17:42;8.43;;;5.80;;
31680;SDS011;18281;51.364;9.566;2022-07-23T07:20:07;11.60;;;6.10;;
31680;SDS011;18281;51.364;9.566;2022-07-23T07:22:33;10.55;;;5.97;;
31680;SDS011;18281;51.364;9.566;2022-07-23T07:24:59;8.98;;;6.30;;
31680;SDS011;18281;51.364;9.566;2022-07-23T07:27:24;9.05;;;6.18;;
31680;SDS011;18281;51.364;9.566;2022-07-23T07:29:50;12.77;;;6.70;;
31680;SDS011;18281;51.364;9.566;2022-07-23T07:32:15;9.05;;;6.57;;
31680;SDS011;18281;51.364;9.566;2022-07-23T07:34:40;10.55;;;7.18;;
31680;SDS011;18281;51.364;9.566;2022-07-23T07:37:06;10.35;;;6.70;;
31680;SDS011;18281;51.364;9.566;2022-07-23T07:39:31;7.95;;;6.63;;
31680;SDS011;18281;51.364;9.566;2022-07-23T07:41:57;9.48;;;6.32;;
31680;SDS011;18281;51.364;9.566;2022-07-23T07:44:22;8.05;;;6.28;;
31680;SDS011;18281;51.364;9.566;2022-07-23T07:46:47;9.13;;;5.88;;
31680;SDS011;18281;51.364;9.566;2022-07-23T07:49:13;8.40;;;5.40;;
31680;SDS011;18281;51.364;9.566;2022-07-23T07:51:38;8.32;;;4.60;;
31680;SDS011;18281;51.364;9.566;2022-07-23T07:54:03;7.47;;;5.22;;
31680;SDS011;18281;51.364;9.566;2022-07-23T07:56:29;5.68;;;4.03;;
31680;SDS011;18281;51.364;9.566;2022-07-23T07:58:54;5.53;;;3.97;;
31680;SDS011;18281;51.364;9.566;2022-07-23T08:01:20;5.18;;;3.55;;
31680;SDS011;18281;51.364;9.566;2022-07-23T08:03:45;6.80;;;3.53;;
31680;SDS011;18281;51.364;9.566;2022-07-23T08:06:11;4.53;;;3.30;;
31680;SDS011;18281;51.364;9.566;2022-07-23T08:08:36;7.60;;;2.60;;
31680;SDS011;18281;51.364;9.566;2022-07-23T08:11:02;4.05;;;1.95;;
31680;SDS011;18281;51.364;9.566;2022-07-23T08:13:27;3.70;;;2.40;;
31680;SDS011;18281;51.364;9.566;2022-07-23T08:15:53;3.65;;;2.05;;
31680;SDS011;18281;51.364;9.566;2022-07-23T08:18:18;3.53;;;2.60;;
31680;SDS011;18281;51.364;9.566;2022-07-23T08:20:44;5.22;;;3.13;;
31680;SDS011;18281;51.364;9.566;2022-07-23T08:23:10;4.63;;;2.20;;
31680;SDS011;18281;51.364;9.566;2022-07-23T08:25:36;3.95;;;2.03;;
31680;SDS011;18281;51.364;9.566;2022-07-23T08:28:05;2.22;;;1.85;;
31680;SDS011;18281;51.364;9.566;2022-07-23T08:30:32;3.10;;;2.13;;
31680;SDS011;18281;51.364;9.566;2022-07-23T08:32:59;3.30;;;2.10;;
31680;SDS011;18281;51.364;9.566;2022-07-23T08:35:27;4.40;;;2.05;;
31680;SDS011;18281;51.364;9.566;2022-07-23T08:37:53;3.72;;;2.35;;
31680;SDS011;18281;51.364;9.566;2022-07-23T08:40:18;6.47;;;2.85;;
31680;SDS011;18281;51.364;9.566;2022-07-23T08:42:45;3.25;;;2.90;;
31680;SDS011;18281;51.364;9.566;2022-07-23T08:45:13;4.07;;;2.10;;
31680;SDS011;18281;51.364;9.566;2022-07-23T08:47:41;4.75;;;3.13;;
31680;SDS011;18281;51.364;9.566;2022-07-23T08:50:08;7.38;;;3.30;;
31680;SDS011;18281;51.364;9.566;2022-07-23T08:52:35;5.60;;;2.28;;
31680;SDS011;18281;51.364;9.566;2022-07-23T08:55:01;7.25;;;3.72;;
31680;SDS011;18281;51.364;9.566;2022-07-23T08:57:27;5.57;;;3.50;;
31680;SDS011;18281;51.364;9.566;2022-07-23T08:59:52;6.80;;;3.25;;
31680;SDS011;18281;51.364;9.566;2022-07-23T09:02:18;5.35;;;3.70;;
31680;SDS011;18281;51.364;9.566;2022-07-23T09:04:43;3.38;;;2.53;;
31680;SDS011;18281;51.364;9.566;2022-07-23T09:07:08;12.88;;;4.10;;
31680;SDS011;18281;51.364;9.566;2022-07-23T09:09:34;3.70;;;2.72;;
31680;SDS011;18281;51.364;9.566;2022-07-23T09:12:03;6.97;;;3.13;;
31680;SDS011;18281;51.364;9.566;2022-07-23T09:14:43;5.32;;;3.10;;
31680;SDS011;18281;51.364;9.566;2022-07-23T09:17:16;4.90;;;3.15;;
31680;SDS011;18281;51.364;9.566;2022-07-23T09:19:43;5.07;;;3.20;;
31680;SDS011;18281;51.364;9.566;2022-07-23T09:22:18;3.35;;;3.05;;
31680;SDS011;18281;51.364;9.566;2022-07-23T09:25:05;3.50;;;2.78;;
31680;SDS011;18281;51.364;9.566;2022-07-23T09:30:21;9.60;;;3.05;;
31680;SDS011;18281;51.364;9.566;2022-07-23T09:33:04;8.30;;;3.10;;
31680;SDS011;18281;51.364;9.566;2022-07-23T09:38:18;3.63;;;2.72;;
31680;SDS011;18281;51.364;9.566;2022-07-23T09:40:45;3.75;;;2.83;;
31680;SDS011;18281;51.364;9.566;2022-07-23T09:43:12;3.88;;;2.58;;
31680;SDS011;18281;51.364;9.566;2022-07-23T09:48:17;6.22;;;2.72;;
31680;SDS011;18281;51.364;9.566;2022-07-23T09:50:43;4.65;;;2.53;;
31680;SDS011;18281;51.364;9.566;2022-07-23T09:53:10;6.82;;;2.85;;
31680;SDS011;18281;51.364;9.566;2022-07-23T09:58:16;4.07;;;2.83;;
31680;SDS011;18281;51.364;9.566;2022-07-23T10:00:46;5.75;;;2.60;;
31680;SDS011;18281;51.364;9.566;2022-07-23T10:03:14;5.50;;;2.90;;
31680;SDS011;18281;51.364;9.566;2022-07-23T10:05:40;4.90;;;3.17;;
31680;SDS011;18281;51.364;9.566;2022-07-23T10:08:08;3.75;;;2.30;;
31680;SDS011;18281;51.364;9.566;2022-07-23T10:10:38;5.80;;;2.50;;
31680;SDS011;18281;51.364;9.566;2022-07-23T10:13:05;3.63;;;2.47;;
31680;SDS011;18281;51.364;9.566;2022-07-23T10:15:49;4.13;;;2.38;;
31680;SDS011;18281;51.364;9.566;2022-07-23T10:18:15;4.47;;;2.53;;
31680;SDS011;18281;51.364;9.566;2022-07-23T10:20:41;3.55;;;2.47;;
31680;SDS011;18281;51.364;9.566;2022-07-23T10:23:15;5.88;;;2.33;;
31680;SDS011;18281;51.364;9.566;2022-07-23T10:33:38;3.97;;;1.90;;
31680;SDS011;18281;51.364;9.566;2022-07-23T10:36:44;3.25;;;1.95;;
31680;SDS011;18281;51.364;9.566;2022-07-23T10:39:19;2.22;;;1.33;;
31680;SDS011;18281;51.364;9.566;2022-07-23T10:41:49;3.15;;;1.77;;
31680;SDS011;18281;51.364;9.566;2022-07-23T10:44:19;2.42;;;1.92;;
31680;SDS011;18281;51.364;9.566;2022-07-23T10:46:55;2.90;;;1.73;;
31680;SDS011;18281;51.364;9.566;2022-07-23T10:49:42;5.63;;;1.58;;
31680;SDS011;18281;51.364;9.566;2022-07-23T10:54:42;2.55;;;1.35;;
31680;SDS011;18281;51.364;9.566;2022-07-23T10:57:10;2.65;;;1.63;;
31680;SDS011;18281;51.364;9.566;2022-07-23T11:02:30;1.77;;;1.45;;
31680;SDS011;18281;51.364;9.566;2022-07-23T11:05:00;9.50;;;2.45;;
31680;SDS011;18281;51.364;9.566;2022-07-23T11:07:28;2.10;;;1.90;;
31680;SDS011;18281;51.364;9.566;2022-07-23T11:09:54;1.63;;;1.52;;
31680;SDS011;18281;51.364;9.566;2022-07-23T11:15:08;3.80;;;1.60;;
31680;SDS011;18281;51.364;9.566;2022-07-23T11:25:07;2.40;;;1.63;;
31680;SDS011;18281;51.364;9.566;2022-07-23T11:27:40;4.78;;;2.20;;
31680;SDS011;18281;51.364;9.566;2022-07-23T11:30:10;1.90;;;1.70;;
31680;SDS011;18281;51.364;9.566;2022-07-23T11:35:41;5.75;;;2.50;;
31680;SDS011;18281;51.364;9.566;2022-07-23T11:38:17;3.53;;;1.80;;
31680;SDS011;18281;51.364;9.566;2022-07-23T11:40:45;2.50;;;1.98;;
31680;SDS011;18281;51.364;9.566;2022-07-23T11:43:13;5.10;;;1.90;;
31680;SDS011;18281;51.364;9.566;2022-07-23T11:45:40;2.22;;;1.95;;
31680;SDS011;18281;51.364;9.566;2022-07-23T11:48:15;3.70;;;2.40;;
31680;SDS011;18281;51.364;9.566;2022-07-23T11:50:42;4.57;;;2.63;;
31680;SDS011;18281;51.364;9.566;2022-07-23T11:53:07;3.15;;;2.05;;
31680;SDS011;18281;51.364;9.566;2022-07-23T11:55:33;2.55;;;1.90;;
31680;SDS011;18281;51.364;9.566;2022-07-23T11:57:59;3.30;;;1.50;;
31680;SDS011;18281;51.364;9.566;2022-07-23T12:00:26;1.90;;;1.60;;
31680;SDS011;18281;51.364;9.566;2022-07-23T12:02:54;2.22;;;1.77;;
31680;SDS011;18281;51.364;9.566;2022-07-23T12:05:24;2.30;;;1.73;;
31680;SDS011;18281;51.364;9.566;2022-07-23T12:07:51;4.35;;;2.25;;
31680;SDS011;18281;51.364;9.566;2022-07-23T12:15:16;2.53;;;1.67;;
31680;SDS011;18281;51.364;9.566;2022-07-23T12:17:45;3.65;;;1.92;;
31680;SDS011;18281;51.364;9.566;2022-07-23T12:20:21;3.65;;;1.85;;
31680;SDS011;18281;51.364;9.566;2022-07-23T12:22:50;2.80;;;1.95;;
31680;SDS011;18281;51.364;9.566;2022-07-23T12:25:18;4.97;;;2.47;;
31680;SDS011;18281;51.364;9.566;2022-07-23T12:27:45;4.85;;;1.90;;
31680;SDS011;18281;51.364;9.566;2022-07-23T12:30:19;2.33;;;1.85;;
31680;SDS011;18281;51.364;9.566;2022-07-23T12:32:50;8.65;;;2.78;;
31680;SDS011;18281;51.364;9.566;2022-07-23T12:35:17;2.75;;;2.10;;
31680;SDS011;18281;51.364;9.566;2022-07-23T12:37:44;4.78;;;3.75;;
31680;SDS011;18281;51.364;9.566;2022-07-23T12:40:30;3.13;;;2.00;;
31680;SDS011;18281;51.364;9.566;2022-07-23T12:43:01;4.07;;;2.00;;
31680;SDS011;18281;51.364;9.566;2022-07-23T12:45:42;2.67;;;1.83;;
31680;SDS011;18281;51.364;9.566;2022-07-23T12:48:27;2.20;;;1.80;;
31680;SDS011;18281;51.364;9.566;2022-07-23T12:50:54;3.13;;;2.92;;
31680;SDS011;18281;51.364;9.566;2022-07-23T12:53:21;2.97;;;2.00;;
31680;SDS011;18281;51.364;9.566;2022-07-23T12:55:48;3.15;;;1.88;;
31680;SDS011;18281;51.364;9.566;2022-07-23T12:58:15;8.23;;;2.28;;
31680;SDS011;18281;51.364;9.566;2022-07-23T13:00:52;2.75;;;1.90;;
31680;SDS011;18281;51.364;9.566;2022-07-23T13:03:20;3.38;;;1.95;;
31680;SDS011;18281;51.364;9.566;2022-07-23T13:06:01;3.85;;;2.22;;
31680;SDS011;18281;51.364;9.566;2022-07-23T13:08:28;2.72;;;1.92;;
31680;SDS011;18281;51.364;9.566;2022-07-23T13:10:55;3.50;;;2.40;;
31680;SDS011;18281;51.364;9.566;2022-07-23T13:13:22;4.13;;;2.10;;
31680;SDS011;18281;51.364;9.566;2022-07-23T13:15:49;2.92;;;2.17;;
31680;SDS011;18281;51.364;9.566;2022-07-23T13:18:15;2.60;;;2.25;;
31680;SDS011;18281;51.364;9.566;2022-07-23T13:20:42;4.32;;;2.58;;
31680;SDS011;18281;51.364;9.566;2022-07-23T13:23:08;3.53;;;2.50;;
31680;SDS011;18281;51.364;9.566;2022-07-23T13:25:33;3.75;;;2.38;;
31680;SDS011;18281;51.364;9.566;2022-07-23T13:27:59;4.60;;;2.38;;
31680;SDS011;18281;51.364;9.566;2022-07-23T13:30:25;2.65;;;2.00;;
31680;SDS011;18281;51.364;9.566;2022-07-23T13:32:51;3.28;;;2.20;;
31680;SDS011;18281;51.364;9.566;2022-07-23T13:35:16;2.55;;;2.35;;
31680;SDS011;18281;51.364;9.566;2022-07-23T13:37:41;4.70;;;2.53;;
31680;SDS011;18281;51.364;9.566;2022-07-23T13:40:07;4.35;;;2.90;;
31680;SDS011;18281;51.364;9.566;2022-07-23T13:42:33;2.78;;;2.35;;
31680;SDS011;18281;51.364;9.566;2022-07-23T13:44:58;3.45;;;2.20;;
31680;SDS011;18281;51.364;9.566;2022-07-23T13:47:23;3.70;;;2.22;;
31680;SDS011;18281;51.364;9.566;2022-07-23T13:49:49;4.13;;;2.25;;
31680;SDS011;18281;51.364;9.566;2022-07-23T13:52:14;3.05;;;2.30;;
31680;SDS011;18281;51.364;9.566;2022-07-23T13:54:40;2.80;;;2.30;;
31680;SDS011;18281;51.364;9.566;2022-07-23T13:57:05;4.88;;;2.67;;
31680;SDS011;18281;51.364;9.566;2022-07-23T13:59:30;2.72;;;2.20;;
31680;SDS011;18281;51.364;9.566;2022-07-23T14:01:56;2.40;;;2.10;;
31680;SDS011;18281;51.364;9.566;2022-07-23T14:04:21;6.30;;;2.30;;
31680;SDS011;18281;51.364;9.566;2022-07-23T14:06:47;6.95;;;2.50;;
31680;SDS011;18281;51.364;9.566;2022-07-23T14:09:12;4.22;;;2.25;;
31680;SDS011;18281;51.364;9.566;2022-07-23T14:11:38;2.80;;;2.10;;
31680;SDS011;18281;51.364;9.566;2022-07-23T14:14:04;2.47;;;2.20;;
31680;SDS011;18281;51.364;9.566;2022-07-23T14:16:30;3.78;;;2.38;;
31680;SDS011;18281;51.364;9.566;2022-07-23T14:18:55;3.00;;;2.30;;
31680;SDS011;18281;51.364;9.566;2022-07-23T14:21:21;2.90;;;2.70;;
31680;SDS011;18281;51.364;9.566;2022-07-23T14:23:46;3.97;;;2.15;;
31680;SDS011;18281;51.364;9.566;2022-07-23T14:26:12;2.10;;;1.92;;
31680;SDS011;18281;51.364;9.566;2022-07-23T14:28:37;3.03;;;1.73;;
31680;SDS011;18281;51.364;9.566;2022-07-23T14:31:03;4.95;;;1.98;;
31680;SDS011;18281;51.364;9.566;2022-07-23T14:33:28;4.43;;;2.40;;
31680;SDS011;18281;51.364;9.566;2022-07-23T14:35:54;2.10;;;2.00;;
31680;SDS011;18281;51.364;9.566;2022-07-23T14:38:19;3.80;;;2.10;;
31680;SDS011;18281;51.364;9.566;2022-07-23T14:40:44;2.08;;;1.95;;
31680;SDS011;18281;51.364;9.566;2022-07-23T14:43:10;4.05;;;2.00;;
31680;SDS011;18281;51.364;9.566;2022-07-23T14:45:35;2.53;;;1.83;;
31680;SDS011;18281;51.364;9.566;2022-07-23T14:48:01;2.00;;;1.90;;
31680;SDS011;18281;51.364;9.566;2022-07-23T14:50:27;4.82;;;2.05;;
31680;SDS011;18281;51.364;9.566;2022-07-23T14:52:53;3.65;;;2.33;;
31680;SDS011;18281;51.364;9.566;2022-07-23T14:55:19;2.25;;;2.05;;
31680;SDS011;18281;51.364;9.566;2022-07-23T14:57:44;1.83;;;1.50;;
31680;SDS011;18281;51.364;9.566;2022-07-23T15:00:10;3.13;;;1.95;;
31680;SDS011;18281;51.364;9.566;2022-07-23T15:02:36;2.42;;;1.60;;
31680;SDS011;18281;51.364;9.566;2022-07-23T15:05:01;2.72;;;1.80;;
31680;SDS011;18281;51.364;9.566;2022-07-23T15:07:27;5.97;;;2.13;;
31680;SDS011;18281;51.364;9.566;2022-07-23T15:09:54;2.88;;;2.20;;
31680;SDS011;18281;51.364;9.566;2022-07-23T15:12:21;3.05;;;2.55;;
31680;SDS011;18281;51.364;9.566;2022-07-23T15:14:46;2.80;;;1.98;;
31680;SDS011;18281;51.364;9.566;2022-07-23T15:17:12;2.00;;;1.70;;
31680;SDS011;18281;51.364;9.566;2022-07-23T15:19:37;2.05;;;1.83;;
31680;SDS011;18281;51.364;9.566;2022-07-23T15:22:02;3.70;;;1.65;;
31680;SDS011;18281;51.364;9.566;2022-07-23T15:24:29;2.20;;;1.63;;